sensor_id;sensor_type;location;lat;lon;timestamp;P1;durP1;ratioP1;P2;durP2;ratioP2
29412;SDS011;16389;50.126;8.450;2022-12-20T00:02:06;26.23;;;14.77;;
29412;SDS011;16389;50.126;8.450;2022-12-20T00:04:32;22.42;;;14.48;;
29412;SDS011;16389;50.126;8.450;2022-12-20T00:06:58;21.75;;;11.70;;
29412;SDS011;16389;50.126;8.450;2022-12-20T00:09:23;26.98;;;12.27;;
29412;SDS011;16389;50.126;8.450;2022-12-20T00:11:49;26.75;;;13.63;;
29412;SDS011;16389;50.126;8.450;2022-12-20T00:14:15;24.60;;;12.13;;
29412;SDS011;16389;50.126;8.450;2022-12-20T00:16:41;24.05;;;12.88;;
29412;SDS011;16389;50.126;8.450;2022-12-20T00:19:08;23.38;;;12.75;;
29412;SDS011;16389;50.126;8.450;2022-12-20T00:21:34;26.08;;;11.85;;
29412;SDS011;16389;50.126;8.450;2022-12-20T00:24:01;27.58;;;13.23;;
29412;SDS011;16389;50.126;8.450;2022-12-20T00:26:28;29.05;;;12.48;;
29412;SDS011;16389;50.126;8.450;2022-12-20T00:28:56;25.45;;;13.15;;
29412;SDS011;16389;50.126;8.450;2022-12-20T00:31:24;32.25;;;14.35;;
29412;SDS011;16389;50.126;8.450;2022-12-20T00:33:52;26.23;;;13.98;;
29412;SDS011;16389;50.126;8.450;2022-12-20T00:36:19;19.35;;;11.75;;
29412;SDS011;16389;50.126;8.450;2022-12-20T00:38:45;23.27;;;12.00;;
29412;SDS011;16389;50.126;8.450;2022-12-20T00:41:12;21.17;;;11.82;;
29412;SDS011;16389;50.126;8.450;2022-12-20T00:43:40;19.85;;;13.15;;
29412;SDS011;16389;50.126;8.450;2022-12-20T00:46:06;23.52;;;12.13;;
29412;SDS011;16389;50.126;8.450;2022-12-20T00:48:33;27.73;;;13.45;;
29412;SDS011;16389;50.126;8.450;2022-12-20T00:51:00;19.20;;;11.32;;
29412;SDS011;16389;50.126;8.450;2022-12-20T00:53:28;22.42;;;11.05;;
29412;SDS011;16389;50.126;8.450;2022-12-20T00:55:54;21.55;;;11.40;;
29412;SDS011;16389;50.126;8.450;2022-12-20T00:58:19;27.50;;;12.43;;
29412;SDS011;16389;50.126;8.450;2022-12-20T01:00:45;24.25;;;11.52;;
29412;SDS011;16389;50.126;8.450;2022-12-20T01:03:11;19.73;;;11.38;;
29412;SDS011;16389;50.126;8.450;2022-12-20T01:05:37;29.15;;;12.88;;
29412;SDS011;16389;50.126;8.450;2022-12-20T01:08:03;20.17;;;12.65;;
29412;SDS011;16389;50.126;8.450;2022-12-20T01:10:30;22.02;;;12.50;;
29412;SDS011;16389;50.126;8.450;2022-12-20T01:12:55;22.00;;;12.68;;
29412;SDS011;16389;50.126;8.450;2022-12-20T01:15:21;23.55;;;12.25;;
29412;SDS011;16389;50.126;8.450;2022-12-20T01:17:47;24.17;;;11.38;;
29412;SDS011;16389;50.126;8.450;2022-12-20T01:20:13;22.25;;;11.60;;
29412;SDS011;16389;50.126;8.450;2022-12-20T01:22:39;28.08;;;12.90;;
29412;SDS011;16389;50.126;8.450;2022-12-20T01:25:04;20.15;;;12.25;;
29412;SDS011;16389;50.126;8.450;2022-12-20T01:27:30;23.20;;;14.18;;
29412;SDS011;16389;50.126;8.450;2022-12-20T01:29:56;32.50;;;13.25;;
29412;SDS011;16389;50.126;8.450;2022-12-20T01:32:21;20.17;;;11.30;;
29412;SDS011;16389;50.126;8.450;2022-12-20T01:34:47;23.35;;;11.65;;
29412;SDS011;16389;50.126;8.450;2022-12-20T01:37:12;21.40;;;13.18;;
29412;SDS011;16389;50.126;8.450;2022-12-20T01:39:38;18.33;;;10.73;;
29412;SDS011;16389;50.126;8.450;2022-12-20T01:42:04;19.77;;;12.63;;
29412;SDS011;16389;50.126;8.450;2022-12-20T01:46:55;23.48;;;12.55;;
29412;SDS011;16389;50.126;8.450;2022-12-20T01:49:31;30.90;;;12.50;;
29412;SDS011;16389;50.126;8.450;2022-12-20T01:52:05;22.02;;;12.15;;
29412;SDS011;16389;50.126;8.450;2022-12-20T01:54:57;22.77;;;13.27;;
29412;SDS011;16389;50.126;8.450;2022-12-20T01:57:34;23.73;;;14.18;;
29412;SDS011;16389;50.126;8.450;2022-12-20T02:00:05;20.08;;;12.02;;
29412;SDS011;16389;50.126;8.450;2022-12-20T02:02:32;27.20;;;13.35;;
29412;SDS011;16389;50.126;8.450;2022-12-20T02:04:58;20.50;;;12.63;;
29412;SDS011;16389;50.126;8.450;2022-12-20T02:07:24;19.95;;;12.40;;
29412;SDS011;16389;50.126;8.450;2022-12-20T02:09:52;27.60;;;13.52;;
29412;SDS011;16389;50.126;8.450;2022-12-20T02:12:21;21.00;;;11.50;;
29412;SDS011;16389;50.126;8.450;2022-12-20T02:15:02;25.02;;;13.45;;
29412;SDS011;16389;50.126;8.450;2022-12-20T02:18:03;24.67;;;15.07;;
29412;SDS011;16389;50.126;8.450;2022-12-20T02:20:47;24.33;;;12.80;;
29412;SDS011;16389;50.126;8.450;2022-12-20T02:23:34;26.73;;;12.85;;
29412;SDS011;16389;50.126;8.450;2022-12-20T02:26:24;20.98;;;11.77;;
29412;SDS011;16389;50.126;8.450;2022-12-20T02:34:44;24.38;;;12.32;;
29412;SDS011;16389;50.126;8.450;2022-12-20T02:37:10;25.40;;;12.98;;
29412;SDS011;16389;50.126;8.450;2022-12-20T02:39:37;31.33;;;14.57;;
29412;SDS011;16389;50.126;8.450;2022-12-20T02:42:09;23.85;;;12.32;;
29412;SDS011;16389;50.126;8.450;2022-12-20T02:44:36;18.50;;;12.25;;
29412;SDS011;16389;50.126;8.450;2022-12-20T02:47:26;28.42;;;11.68;;
29412;SDS011;16389;50.126;8.450;2022-12-20T02:49:57;25.90;;;13.43;;
29412;SDS011;16389;50.126;8.450;2022-12-20T02:52:23;19.50;;;11.43;;
29412;SDS011;16389;50.126;8.450;2022-12-20T02:54:51;23.75;;;11.35;;
29412;SDS011;16389;50.126;8.450;2022-12-20T02:57:20;18.52;;;11.05;;
29412;SDS011;16389;50.126;8.450;2022-12-20T03:00:36;19.98;;;10.90;;
29412;SDS011;16389;50.126;8.450;2022-12-20T03:02:43;38.33;;;14.00;;
29412;SDS011;16389;50.126;8.450;2022-12-20T03:05:29;27.00;;;12.05;;
29412;SDS011;16389;50.126;8.450;2022-12-20T03:07:56;27.95;;;13.20;;
29412;SDS011;16389;50.126;8.450;2022-12-20T03:10:22;15.18;;;10.57;;
29412;SDS011;16389;50.126;8.450;2022-12-20T03:12:48;30.38;;;12.95;;
29412;SDS011;16389;50.126;8.450;2022-12-20T03:15:13;24.80;;;13.10;;
29412;SDS011;16389;50.126;8.450;2022-12-20T03:17:39;19.08;;;12.93;;
29412;SDS011;16389;50.126;8.450;2022-12-20T03:20:05;17.60;;;11.68;;
29412;SDS011;16389;50.126;8.450;2022-12-20T03:22:31;19.30;;;12.57;;
29412;SDS011;16389;50.126;8.450;2022-12-20T03:24:58;21.52;;;11.27;;
29412;SDS011;16389;50.126;8.450;2022-12-20T03:27:24;22.80;;;12.68;;
29412;SDS011;16389;50.126;8.450;2022-12-20T03:29:52;24.20;;;12.75;;
29412;SDS011;16389;50.126;8.450;2022-12-20T03:32:17;24.08;;;13.25;;
29412;SDS011;16389;50.126;8.450;2022-12-20T03:34:43;29.10;;;13.52;;
29412;SDS011;16389;50.126;8.450;2022-12-20T03:37:09;18.63;;;12.43;;
29412;SDS011;16389;50.126;8.450;2022-12-20T03:39:34;21.95;;;12.23;;
29412;SDS011;16389;50.126;8.450;2022-12-20T03:42:00;23.63;;;13.57;;
29412;SDS011;16389;50.126;8.450;2022-12-20T03:44:25;18.85;;;11.73;;
29412;SDS011;16389;50.126;8.450;2022-12-20T03:46:51;20.38;;;12.02;;
29412;SDS011;16389;50.126;8.450;2022-12-20T03:49:17;18.83;;;12.57;;
29412;SDS011;16389;50.126;8.450;2022-12-20T03:51:42;24.35;;;11.30;;
29412;SDS011;16389;50.126;8.450;2022-12-20T03:54:08;17.30;;;10.98;;
29412;SDS011;16389;50.126;8.450;2022-12-20T03:56:34;23.92;;;11.35;;
29412;SDS011;16389;50.126;8.450;2022-12-20T03:58:59;19.95;;;11.40;;
29412;SDS011;16389;50.126;8.450;2022-12-20T04:01:26;18.38;;;11.82;;
29412;SDS011;16389;50.126;8.450;2022-12-20T04:03:53;22.85;;;11.63;;
29412;SDS011;16389;50.126;8.450;2022-12-20T04:06:19;27.17;;;12.35;;
29412;SDS011;16389;50.126;8.450;2022-12-20T04:08:45;22.67;;;12.18;;
29412;SDS011;16389;50.126;8.450;2022-12-20T04:11:11;16.17;;;11.18;;
29412;SDS011;16389;50.126;8.450;2022-12-20T04:13:40;16.55;;;10.02;;
29412;SDS011;16389;50.126;8.450;2022-12-20T04:16:13;19.45;;;11.45;;
29412;SDS011;16389;50.126;8.450;2022-12-20T04:18:41;23.45;;;12.68;;
29412;SDS011;16389;50.126;8.450;2022-12-20T04:21:07;15.38;;;10.38;;
29412;SDS011;16389;50.126;8.450;2022-12-20T04:23:35;22.33;;;11.88;;
29412;SDS011;16389;50.126;8.450;2022-12-20T04:26:02;21.63;;;11.38;;
29412;SDS011;16389;50.126;8.450;2022-12-20T04:28:30;22.23;;;11.80;;
29412;SDS011;16389;50.126;8.450;2022-12-20T04:30:56;18.65;;;11.23;;
29412;SDS011;16389;50.126;8.450;2022-12-20T04:33:22;21.35;;;11.38;;
29412;SDS011;16389;50.126;8.450;2022-12-20T04:35:48;18.42;;;10.65;;
29412;SDS011;16389;50.126;8.450;2022-12-20T04:38:14;15.60;;;10.80;;
29412;SDS011;16389;50.126;8.450;2022-12-20T04:40:39;14.80;;;10.27;;
29412;SDS011;16389;50.126;8.450;2022-12-20T04:43:06;14.45;;;10.60;;
29412;SDS011;16389;50.126;8.450;2022-12-20T04:45:32;22.58;;;11.50;;
29412;SDS011;16389;50.126;8.450;2022-12-20T04:47:57;20.27;;;11.85;;
29412;SDS011;16389;50.126;8.450;2022-12-20T04:50:23;16.00;;;10.93;;
29412;SDS011;16389;50.126;8.450;2022-12-20T04:52:49;21.67;;;11.15;;
29412;SDS011;16389;50.126;8.450;2022-12-20T04:55:37;21.30;;;10.57;;
29412;SDS011;16389;50.126;8.450;2022-12-20T04:58:04;17.88;;;10.65;;
29412;SDS011;16389;50.126;8.450;2022-12-20T05:00:30;18.77;;;11.32;;
29412;SDS011;16389;50.126;8.450;2022-12-20T05:02:56;16.70;;;10.25;;
29412;SDS011;16389;50.126;8.450;2022-12-20T05:05:22;32.58;;;11.13;;
29412;SDS011;16389;50.126;8.450;2022-12-20T05:07:47;19.90;;;12.00;;
29412;SDS011;16389;50.126;8.450;2022-12-20T05:10:13;25.60;;;11.57;;
29412;SDS011;16389;50.126;8.450;2022-12-20T05:12:39;17.48;;;9.77;;
29412;SDS011;16389;50.126;8.450;2022-12-20T05:15:04;13.13;;;10.73;;
29412;SDS011;16389;50.126;8.450;2022-12-20T05:17:31;15.85;;;10.75;;
29412;SDS011;16389;50.126;8.450;2022-12-20T05:19:57;20.80;;;9.93;;
29412;SDS011;16389;50.126;8.450;2022-12-20T05:22:23;16.38;;;10.45;;
29412;SDS011;16389;50.126;8.450;2022-12-20T05:25:08;17.67;;;9.18;;
29412;SDS011;16389;50.126;8.450;2022-12-20T05:27:53;20.80;;;10.20;;
29412;SDS011;16389;50.126;8.450;2022-12-20T05:30:19;17.63;;;10.93;;
29412;SDS011;16389;50.126;8.450;2022-12-20T05:32:44;15.90;;;10.88;;
29412;SDS011;16389;50.126;8.450;2022-12-20T05:35:10;19.65;;;11.77;;
29412;SDS011;16389;50.126;8.450;2022-12-20T05:37:36;16.45;;;10.13;;
29412;SDS011;16389;50.126;8.450;2022-12-20T05:40:01;19.77;;;10.23;;
29412;SDS011;16389;50.126;8.450;2022-12-20T05:42:28;15.02;;;10.27;;
29412;SDS011;16389;50.126;8.450;2022-12-20T05:44:54;17.23;;;10.48;;
29412;SDS011;16389;50.126;8.450;2022-12-20T05:47:19;14.77;;;10.98;;
29412;SDS011;16389;50.126;8.450;2022-12-20T05:49:45;15.27;;;9.68;;
29412;SDS011;16389;50.126;8.450;2022-12-20T05:52:10;20.60;;;11.65;;
29412;SDS011;16389;50.126;8.450;2022-12-20T05:54:36;16.80;;;10.15;;
29412;SDS011;16389;50.126;8.450;2022-12-20T05:57:02;13.60;;;9.27;;
29412;SDS011;16389;50.126;8.450;2022-12-20T05:59:27;15.75;;;9.98;;
29412;SDS011;16389;50.126;8.450;2022-12-20T06:01:53;17.83;;;9.82;;
29412;SDS011;16389;50.126;8.450;2022-12-20T06:04:19;23.85;;;12.45;;
29412;SDS011;16389;50.126;8.450;2022-12-20T06:06:44;16.10;;;10.32;;
29412;SDS011;16389;50.126;8.450;2022-12-20T06:09:10;20.33;;;9.32;;
29412;SDS011;16389;50.126;8.450;2022-12-20T06:11:36;19.60;;;10.95;;
29412;SDS011;16389;50.126;8.450;2022-12-20T06:14:02;15.73;;;9.48;;
29412;SDS011;16389;50.126;8.450;2022-12-20T06:16:28;21.52;;;9.98;;
29412;SDS011;16389;50.126;8.450;2022-12-20T06:18:54;15.98;;;9.55;;
29412;SDS011;16389;50.126;8.450;2022-12-20T06:21:20;17.83;;;10.80;;
29412;SDS011;16389;50.126;8.450;2022-12-20T06:23:45;16.50;;;9.38;;
29412;SDS011;16389;50.126;8.450;2022-12-20T06:26:11;12.38;;;9.60;;
29412;SDS011;16389;50.126;8.450;2022-12-20T06:28:37;19.13;;;9.02;;
29412;SDS011;16389;50.126;8.450;2022-12-20T06:31:07;12.63;;;8.95;;
29412;SDS011;16389;50.126;8.450;2022-12-20T06:33:34;18.77;;;10.43;;
29412;SDS011;16389;50.126;8.450;2022-12-20T06:36:00;13.10;;;8.95;;
29412;SDS011;16389;50.126;8.450;2022-12-20T06:38:27;13.10;;;8.40;;
29412;SDS011;16389;50.126;8.450;2022-12-20T06:40:53;15.88;;;8.77;;
29412;SDS011;16389;50.126;8.450;2022-12-20T06:43:18;18.23;;;9.30;;
29412;SDS011;16389;50.126;8.450;2022-12-20T06:45:44;15.40;;;9.43;;
29412;SDS011;16389;50.126;8.450;2022-12-20T06:48:10;17.98;;;9.15;;
29412;SDS011;16389;50.126;8.450;2022-12-20T06:50:37;12.85;;;9.07;;
29412;SDS011;16389;50.126;8.450;2022-12-20T06:53:03;13.93;;;8.70;;
29412;SDS011;16389;50.126;8.450;2022-12-20T06:55:29;13.57;;;8.63;;
29412;SDS011;16389;50.126;8.450;2022-12-20T06:57:54;17.95;;;9.02;;
29412;SDS011;16389;50.126;8.450;2022-12-20T07:00:20;14.65;;;9.30;;
29412;SDS011;16389;50.126;8.450;2022-12-20T07:02:46;14.60;;;9.07;;
29412;SDS011;16389;50.126;8.450;2022-12-20T07:05:12;15.07;;;10.25;;
29412;SDS011;16389;50.126;8.450;2022-12-20T07:07:38;13.07;;;9.73;;
29412;SDS011;16389;50.126;8.450;2022-12-20T07:10:04;14.50;;;10.13;;
29412;SDS011;16389;50.126;8.450;2022-12-20T07:12:30;15.20;;;9.77;;
29412;SDS011;16389;50.126;8.450;2022-12-20T07:14:57;17.38;;;10.05;;
29412;SDS011;16389;50.126;8.450;2022-12-20T07:17:23;21.77;;;10.95;;
29412;SDS011;16389;50.126;8.450;2022-12-20T07:19:48;12.75;;;9.20;;
29412;SDS011;16389;50.126;8.450;2022-12-20T07:22:14;16.65;;;9.70;;
29412;SDS011;16389;50.126;8.450;2022-12-20T07:24:39;13.48;;;9.25;;
29412;SDS011;16389;50.126;8.450;2022-12-20T07:27:05;19.02;;;9.63;;
29412;SDS011;16389;50.126;8.450;2022-12-20T07:29:30;12.82;;;8.75;;
29412;SDS011;16389;50.126;8.450;2022-12-20T07:31:56;19.58;;;9.77;;
29412;SDS011;16389;50.126;8.450;2022-12-20T07:34:22;12.95;;;8.73;;
29412;SDS011;16389;50.126;8.450;2022-12-20T07:36:47;12.95;;;8.95;;
29412;SDS011;16389;50.126;8.450;2022-12-20T07:39:14;19.98;;;8.65;;
29412;SDS011;16389;50.126;8.450;2022-12-20T07:41:40;14.10;;;9.77;;
29412;SDS011;16389;50.126;8.450;2022-12-20T07:44:05;17.38;;;9.40;;
29412;SDS011;16389;50.126;8.450;2022-12-20T07:46:32;15.38;;;10.50;;
29412;SDS011;16389;50.126;8.450;2022-12-20T07:48:58;15.25;;;9.00;;
29412;SDS011;16389;50.126;8.450;2022-12-20T07:51:25;14.57;;;9.32;;
29412;SDS011;16389;50.126;8.450;2022-12-20T07:56:35;12.43;;;8.70;;
29412;SDS011;16389;50.126;8.450;2022-12-20T07:59:03;17.27;;;8.50;;
29412;SDS011;16389;50.126;8.450;2022-12-20T08:01:29;20.58;;;9.30;;
29412;SDS011;16389;50.126;8.450;2022-12-20T08:03:57;15.57;;;9.55;;
29412;SDS011;16389;50.126;8.450;2022-12-20T08:06:26;17.33;;;9.15;;
29412;SDS011;16389;50.126;8.450;2022-12-20T08:08:53;14.55;;;10.07;;
29412;SDS011;16389;50.126;8.450;2022-12-20T08:11:22;15.82;;;10.00;;
29412;SDS011;16389;50.126;8.450;2022-12-20T08:13:49;13.70;;;10.63;;
29412;SDS011;16389;50.126;8.450;2022-12-20T08:16:15;13.25;;;7.40;;
29412;SDS011;16389;50.126;8.450;2022-12-20T08:18:41;12.52;;;9.57;;
29412;SDS011;16389;50.126;8.450;2022-12-20T08:21:07;14.07;;;9.02;;
29412;SDS011;16389;50.126;8.450;2022-12-20T08:23:32;14.15;;;10.05;;
29412;SDS011;16389;50.126;8.450;2022-12-20T08:25:59;17.58;;;8.95;;
29412;SDS011;16389;50.126;8.450;2022-12-20T08:28:25;13.82;;;9.82;;
29412;SDS011;16389;50.126;8.450;2022-12-20T08:30:51;19.35;;;9.73;;
29412;SDS011;16389;50.126;8.450;2022-12-20T08:33:16;21.10;;;10.63;;
29412;SDS011;16389;50.126;8.450;2022-12-20T08:35:42;12.10;;;9.70;;
29412;SDS011;16389;50.126;8.450;2022-12-20T08:38:07;17.75;;;11.00;;
29412;SDS011;16389;50.126;8.450;2022-12-20T08:40:33;17.52;;;9.88;;
29412;SDS011;16389;50.126;8.450;2022-12-20T08:42:58;13.50;;;9.43;;
29412;SDS011;16389;50.126;8.450;2022-12-20T08:45:24;14.25;;;9.27;;
29412;SDS011;16389;50.126;8.450;2022-12-20T08:47:49;17.35;;;9.63;;
29412;SDS011;16389;50.126;8.450;2022-12-20T08:50:15;15.70;;;10.02;;
29412;SDS011;16389;50.126;8.450;2022-12-20T08:52:41;18.73;;;10.57;;
29412;SDS011;16389;50.126;8.450;2022-12-20T08:55:06;19.08;;;10.32;;
29412;SDS011;16389;50.126;8.450;2022-12-20T08:57:32;14.70;;;10.10;;
29412;SDS011;16389;50.126;8.450;2022-12-20T08:59:58;15.52;;;9.82;;
29412;SDS011;16389;50.126;8.450;2022-12-20T09:02:23;18.30;;;9.55;;
29412;SDS011;16389;50.126;8.450;2022-12-20T09:04:49;21.60;;;10.48;;
29412;SDS011;16389;50.126;8.450;2022-12-20T09:07:15;12.77;;;9.77;;
29412;SDS011;16389;50.126;8.450;2022-12-20T09:09:41;15.85;;;9.30;;
29412;SDS011;16389;50.126;8.450;2022-12-20T09:12:06;16.58;;;10.25;;
29412;SDS011;16389;50.126;8.450;2022-12-20T09:14:32;19.65;;;10.85;;
29412;SDS011;16389;50.126;8.450;2022-12-20T09:16:58;19.52;;;9.93;;
29412;SDS011;16389;50.126;8.450;2022-12-20T09:19:23;15.35;;;9.27;;
29412;SDS011;16389;50.126;8.450;2022-12-20T09:21:49;12.30;;;9.77;;
29412;SDS011;16389;50.126;8.450;2022-12-20T09:24:14;11.77;;;9.40;;
29412;SDS011;16389;50.126;8.450;2022-12-20T09:26:41;16.75;;;10.30;;
29412;SDS011;16389;50.126;8.450;2022-12-20T09:29:06;12.70;;;9.00;;
29412;SDS011;16389;50.126;8.450;2022-12-20T09:31:32;14.80;;;9.23;;
29412;SDS011;16389;50.126;8.450;2022-12-20T09:33:57;18.45;;;8.43;;
29412;SDS011;16389;50.126;8.450;2022-12-20T09:36:24;17.58;;;10.07;;
29412;SDS011;16389;50.126;8.450;2022-12-20T09:38:52;17.10;;;9.43;;
29412;SDS011;16389;50.126;8.450;2022-12-20T09:41:24;13.55;;;8.80;;
29412;SDS011;16389;50.126;8.450;2022-12-20T09:43:53;13.13;;;9.65;;
29412;SDS011;16389;50.126;8.450;2022-12-20T09:46:20;12.70;;;9.13;;
29412;SDS011;16389;50.126;8.450;2022-12-20T09:48:48;14.63;;;9.88;;
29412;SDS011;16389;50.126;8.450;2022-12-20T09:56:46;14.77;;;9.07;;
29412;SDS011;16389;50.126;8.450;2022-12-20T09:59:10;10.45;;;9.13;;
29412;SDS011;16389;50.126;8.450;2022-12-20T10:01:42;15.43;;;10.40;;
29412;SDS011;16389;50.126;8.450;2022-12-20T10:09:39;14.90;;;9.30;;
29412;SDS011;16389;50.126;8.450;2022-12-20T10:12:35;11.80;;;8.38;;
29412;SDS011;16389;50.126;8.450;2022-12-20T10:15:30;12.18;;;9.18;;
29412;SDS011;16389;50.126;8.450;2022-12-20T10:18:20;13.70;;;8.57;;
29412;SDS011;16389;50.126;8.450;2022-12-20T10:23:57;11.10;;;8.23;;
29412;SDS011;16389;50.126;8.450;2022-12-20T10:26:30;16.17;;;8.43;;
29412;SDS011;16389;50.126;8.450;2022-12-20T10:28:57;9.07;;;7.05;;
29412;SDS011;16389;50.126;8.450;2022-12-20T10:31:23;9.73;;;7.82;;
29412;SDS011;16389;50.126;8.450;2022-12-20T10:33:49;14.68;;;8.25;;
29412;SDS011;16389;50.126;8.450;2022-12-20T10:36:18;10.35;;;8.93;;
29412;SDS011;16389;50.126;8.450;2022-12-20T10:38:53;10.15;;;7.15;;
29412;SDS011;16389;50.126;8.450;2022-12-20T10:41:25;11.68;;;7.45;;
29412;SDS011;16389;50.126;8.450;2022-12-20T10:44:15;9.52;;;6.80;;
29412;SDS011;16389;50.126;8.450;2022-12-20T10:46:45;10.30;;;7.60;;
29412;SDS011;16389;50.126;8.450;2022-12-20T10:49:34;11.32;;;7.57;;
29412;SDS011;16389;50.126;8.450;2022-12-20T10:59:37;12.15;;;6.63;;
29412;SDS011;16389;50.126;8.450;2022-12-20T11:07:34;11.48;;;7.38;;
29412;SDS011;16389;50.126;8.450;2022-12-20T11:10:02;14.23;;;8.13;;
29412;SDS011;16389;50.126;8.450;2022-12-20T11:12:59;13.10;;;8.15;;
29412;SDS011;16389;50.126;8.450;2022-12-20T11:15:27;16.48;;;8.15;;
29412;SDS011;16389;50.126;8.450;2022-12-20T11:22:55;11.75;;;7.97;;
29412;SDS011;16389;50.126;8.450;2022-12-20T11:45:30;13.30;;;8.52;;
29412;SDS011;16389;50.126;8.450;2022-12-20T11:51:00;13.90;;;10.10;;
29412;SDS011;16389;50.126;8.450;2022-12-20T11:53:43;11.50;;;7.93;;
29412;SDS011;16389;50.126;8.450;2022-12-20T11:56:27;12.93;;;8.23;;
29412;SDS011;16389;50.126;8.450;2022-12-20T11:59:04;10.90;;;7.88;;
29412;SDS011;16389;50.126;8.450;2022-12-20T12:01:50;9.37;;;7.80;;
29412;SDS011;16389;50.126;8.450;2022-12-20T12:04:25;13.60;;;8.85;;
29412;SDS011;16389;50.126;8.450;2022-12-20T12:12:05;12.35;;;9.02;;
29412;SDS011;16389;50.126;8.450;2022-12-20T12:17:32;10.43;;;8.30;;
29412;SDS011;16389;50.126;8.450;2022-12-20T12:20:19;10.75;;;8.38;;
29412;SDS011;16389;50.126;8.450;2022-12-20T12:23:00;12.88;;;7.95;;
29412;SDS011;16389;50.126;8.450;2022-12-20T12:25:29;10.65;;;8.77;;
29412;SDS011;16389;50.126;8.450;2022-12-20T12:27:55;10.52;;;8.07;;
29412;SDS011;16389;50.126;8.450;2022-12-20T12:30:21;11.93;;;8.73;;
29412;SDS011;16389;50.126;8.450;2022-12-20T12:32:54;14.02;;;8.90;;
29412;SDS011;16389;50.126;8.450;2022-12-20T12:35:39;10.40;;;8.05;;
29412;SDS011;16389;50.126;8.450;2022-12-20T12:38:35;10.38;;;8.52;;
29412;SDS011;16389;50.126;8.450;2022-12-20T12:47:00;12.60;;;7.93;;
29412;SDS011;16389;50.126;8.450;2022-12-20T12:49:29;11.32;;;7.55;;
29412;SDS011;16389;50.126;8.450;2022-12-20T12:51:58;9.65;;;7.50;;
29412;SDS011;16389;50.126;8.450;2022-12-20T12:54:27;11.98;;;7.38;;
29412;SDS011;16389;50.126;8.450;2022-12-20T12:57:20;16.48;;;8.38;;
29412;SDS011;16389;50.126;8.450;2022-12-20T12:59:46;13.07;;;8.10;;
29412;SDS011;16389;50.126;8.450;2022-12-20T13:04:52;11.02;;;8.95;;
29412;SDS011;16389;50.126;8.450;2022-12-20T13:07:39;10.07;;;8.23;;
29412;SDS011;16389;50.126;8.450;2022-12-20T13:17:47;12.98;;;8.93;;
29412;SDS011;16389;50.126;8.450;2022-12-20T13:25:38;6.88;;;5.60;;
29412;SDS011;16389;50.126;8.450;2022-12-20T13:30:43;11.43;;;8.40;;
29412;SDS011;16389;50.126;8.450;2022-12-20T13:33:20;9.30;;;8.02;;
29412;SDS011;16389;50.126;8.450;2022-12-20T13:39:00;9.65;;;7.85;;
29412;SDS011;16389;50.126;8.450;2022-12-20T13:41:42;11.82;;;7.32;;
29412;SDS011;16389;50.126;8.450;2022-12-20T13:44:18;10.38;;;8.50;;
29412;SDS011;16389;50.126;8.450;2022-12-20T13:46:54;10.15;;;7.47;;
29412;SDS011;16389;50.126;8.450;2022-12-20T13:49:38;9.40;;;8.23;;
29412;SDS011;16389;50.126;8.450;2022-12-20T13:54:46;11.13;;;7.43;;
29412;SDS011;16389;50.126;8.450;2022-12-20T13:58:02;10.00;;;8.07;;
29412;SDS011;16389;50.126;8.450;2022-12-20T14:00:17;8.88;;;7.43;;
29412;SDS011;16389;50.126;8.450;2022-12-20T14:02:52;11.50;;;7.35;;
29412;SDS011;16389;50.126;8.450;2022-12-20T14:05:19;12.13;;;7.40;;
29412;SDS011;16389;50.126;8.450;2022-12-20T14:08:09;10.90;;;7.55;;
29412;SDS011;16389;50.126;8.450;2022-12-20T14:10:41;8.07;;;6.72;;
29412;SDS011;16389;50.126;8.450;2022-12-20T14:16:14;9.63;;;6.15;;
29412;SDS011;16389;50.126;8.450;2022-12-20T14:21:14;6.97;;;5.97;;
29412;SDS011;16389;50.126;8.450;2022-12-20T14:23:42;7.72;;;6.30;;
29412;SDS011;16389;50.126;8.450;2022-12-20T14:26:12;8.27;;;6.72;;
29412;SDS011;16389;50.126;8.450;2022-12-20T14:28:47;12.60;;;6.82;;
29412;SDS011;16389;50.126;8.450;2022-12-20T14:31:24;8.30;;;5.97;;
29412;SDS011;16389;50.126;8.450;2022-12-20T14:34:02;10.90;;;6.30;;
29412;SDS011;16389;50.126;8.450;2022-12-20T14:36:35;8.52;;;6.28;;
29412;SDS011;16389;50.126;8.450;2022-12-20T14:39:19;8.82;;;6.88;;
29412;SDS011;16389;50.126;8.450;2022-12-20T14:41:54;12.02;;;7.10;;
29412;SDS011;16389;50.126;8.450;2022-12-20T14:44:25;7.85;;;5.88;;
29412;SDS011;16389;50.126;8.450;2022-12-20T14:46:59;9.30;;;7.00;;
29412;SDS011;16389;50.126;8.450;2022-12-20T14:49:29;7.10;;;5.97;;
29412;SDS011;16389;50.126;8.450;2022-12-20T14:54:59;6.50;;;5.15;;
29412;SDS011;16389;50.126;8.450;2022-12-20T15:02:39;7.05;;;6.22;;
29412;SDS011;16389;50.126;8.450;2022-12-20T15:07:55;7.88;;;5.88;;
29412;SDS011;16389;50.126;8.450;2022-12-20T15:13:18;7.65;;;6.63;;
29412;SDS011;16389;50.126;8.450;2022-12-20T15:15:46;7.32;;;5.82;;
29412;SDS011;16389;50.126;8.450;2022-12-20T15:18:15;9.00;;;6.75;;
29412;SDS011;16389;50.126;8.450;2022-12-20T15:20:43;11.32;;;6.20;;
29412;SDS011;16389;50.126;8.450;2022-12-20T15:23:18;13.00;;;7.65;;
29412;SDS011;16389;50.126;8.450;2022-12-20T15:25:45;13.25;;;6.95;;
29412;SDS011;16389;50.126;8.450;2022-12-20T15:28:16;9.52;;;6.43;;
29412;SDS011;16389;50.126;8.450;2022-12-20T15:30:46;7.05;;;6.32;;
29412;SDS011;16389;50.126;8.450;2022-12-20T15:33:15;7.57;;;5.70;;
29412;SDS011;16389;50.126;8.450;2022-12-20T15:35:43;9.32;;;6.45;;
29412;SDS011;16389;50.126;8.450;2022-12-20T15:38:13;10.82;;;6.85;;
29412;SDS011;16389;50.126;8.450;2022-12-20T15:40:41;7.78;;;5.88;;
29412;SDS011;16389;50.126;8.450;2022-12-20T15:43:12;12.18;;;6.45;;
29412;SDS011;16389;50.126;8.450;2022-12-20T15:45:39;8.15;;;6.40;;
29412;SDS011;16389;50.126;8.450;2022-12-20T15:48:10;8.43;;;5.80;;
29412;SDS011;16389;50.126;8.450;2022-12-20T15:50:47;10.57;;;6.43;;
29412;SDS011;16389;50.126;8.450;2022-12-20T15:53:17;10.27;;;7.03;;
29412;SDS011;16389;50.126;8.450;2022-12-20T15:55:47;11.38;;;6.97;;
29412;SDS011;16389;50.126;8.450;2022-12-20T15:58:16;9.20;;;7.03;;
29412;SDS011;16389;50.126;8.450;2022-12-20T16:00:42;7.28;;;6.55;;
29412;SDS011;16389;50.126;8.450;2022-12-20T16:03:29;11.32;;;7.82;;
29412;SDS011;16389;50.126;8.450;2022-12-20T16:05:55;9.40;;;7.03;;
29412;SDS011;16389;50.126;8.450;2022-12-20T16:08:21;9.88;;;6.65;;
29412;SDS011;16389;50.126;8.450;2022-12-20T16:10:47;6.38;;;5.78;;
29412;SDS011;16389;50.126;8.450;2022-12-20T16:13:16;8.73;;;6.13;;
29412;SDS011;16389;50.126;8.450;2022-12-20T16:15:49;12.25;;;7.95;;
29412;SDS011;16389;50.126;8.450;2022-12-20T16:18:15;9.70;;;7.15;;
29412;SDS011;16389;50.126;8.450;2022-12-20T16:20:41;8.57;;;6.90;;
29412;SDS011;16389;50.126;8.450;2022-12-20T16:23:17;10.00;;;7.03;;
29412;SDS011;16389;50.126;8.450;2022-12-20T16:25:46;10.38;;;5.90;;
29412;SDS011;16389;50.126;8.450;2022-12-20T16:28:12;11.50;;;6.97;;
29412;SDS011;16389;50.126;8.450;2022-12-20T16:30:38;9.88;;;6.68;;
29412;SDS011;16389;50.126;8.450;2022-12-20T16:33:04;9.55;;;7.50;;
29412;SDS011;16389;50.126;8.450;2022-12-20T16:35:31;8.85;;;6.65;;
29412;SDS011;16389;50.126;8.450;2022-12-20T16:37:58;12.10;;;7.35;;
29412;SDS011;16389;50.126;8.450;2022-12-20T16:40:25;10.18;;;6.53;;
29412;SDS011;16389;50.126;8.450;2022-12-20T16:42:54;10.38;;;7.25;;
29412;SDS011;16389;50.126;8.450;2022-12-20T16:45:26;12.00;;;6.85;;
29412;SDS011;16389;50.126;8.450;2022-12-20T16:47:53;7.72;;;6.90;;